createdAt,value
2022-10-17T00:00:27.407Z,77.70
2022-10-17T00:05:55.163Z,77.80
2022-10-17T00:11:24.454Z,77.80
2022-10-17T00:16:52.202Z,77.90
2022-10-17T00:22:20.135Z,77.90
2022-10-17T00:27:48.050Z,78.00
2022-10-17T00:33:15.937Z,78.20
2022-10-17T00:38:47.148Z,78.20
2022-10-17T00:44:30.285Z,78.30
2022-10-17T00:49:59.317Z,78.40
2022-10-17T00:55:33.774Z,78.50
2022-10-17T01:01:03.369Z,78.60
2022-10-17T01:06:31.989Z,78.70
2022-10-17T01:12:21.216Z,78.70
2022-10-17T01:18:46.831Z,78.70
2022-10-17T01:24:42.271Z,78.70
2022-10-17T01:30:21.855Z,79.00
2022-10-17T01:36:06.071Z,79.10
2022-10-17T01:41:47.067Z,79.20
2022-10-17T01:47:20.904Z,79.40
2022-10-17T01:52:55.956Z,79.50
2022-10-17T01:58:41.794Z,79.60
2022-10-17T02:04:11.768Z,79.70
2022-10-17T02:09:40.244Z,79.80
2022-10-17T02:15:42.928Z,80.00
2022-10-17T02:21:35.418Z,80.00
2022-10-17T02:27:23.402Z,80.20
2022-10-17T02:33:15.254Z,80.30
2022-10-17T02:38:44.839Z,80.30
2022-10-17T02:44:14.467Z,80.40
2022-10-17T02:49:50.425Z,80.40
2022-10-17T02:55:34.036Z,80.40
2022-10-17T03:01:05.417Z,80.50
2022-10-17T03:06:33.394Z,80.50
2022-10-17T03:12:01.300Z,80.60
2022-10-17T03:17:29.905Z,80.70
2022-10-17T03:22:57.941Z,80.70
2022-10-17T03:28:25.956Z,80.70
2022-10-17T03:33:53.938Z,80.80
2022-10-17T03:39:22.264Z,80.90
2022-10-17T03:44:50.120Z,81.00
2022-10-17T03:50:18.321Z,81.00
2022-10-17T03:55:46.403Z,81.20
2022-10-17T04:01:17.029Z,81.30
2022-10-17T04:06:46.036Z,81.40
2022-10-17T04:12:14.834Z,81.30
2022-10-17T04:17:42.837Z,81.30
2022-10-17T04:23:11.209Z,81.50
2022-10-17T04:34:14.216Z,81.50
2022-10-17T04:39:42.405Z,81.60
2022-10-17T04:45:10.757Z,81.70
2022-10-17T04:50:39.125Z,81.70
2022-10-17T04:56:29.941Z,81.80
2022-10-17T05:01:57.777Z,81.90
2022-10-17T05:07:26.041Z,81.90
2022-10-17T05:13:03.491Z,81.90
2022-10-17T05:18:33.386Z,82.00
2022-10-17T05:24:01.268Z,83.10
2022-10-17T05:29:29.222Z,83.30
2022-10-17T05:35:06.615Z,83.40
2022-10-17T05:40:34.863Z,83.30
2022-10-17T05:46:06.305Z,83.30
2022-10-17T05:51:35.020Z,83.40
2022-10-17T05:57:04.504Z,83.30
2022-10-17T06:02:33.810Z,83.40
2022-10-17T06:08:02.250Z,82.30
2022-10-17T06:13:33.881Z,82.30
2022-10-17T06:19:05.755Z,82.40
2022-10-17T06:24:33.595Z,82.50
2022-10-17T06:30:05.378Z,82.60
2022-10-17T06:35:33.482Z,82.70
2022-10-17T06:41:13.505Z,82.80
2022-10-17T06:46:41.602Z,82.80
2022-10-17T06:52:10.976Z,83.60
2022-10-17T06:57:47.346Z,83.00
2022-10-17T07:03:41.409Z,83.00
2022-10-17T07:09:09.703Z,83.10
2022-10-17T07:14:38.266Z,83.20
2022-10-17T07:20:06.893Z,83.30
2022-10-17T07:25:40.063Z,83.40
2022-10-17T07:31:17.304Z,83.50
2022-10-17T07:36:45.724Z,83.70
2022-10-17T07:42:15.286Z,83.80
2022-10-17T07:47:43.663Z,83.80
2022-10-17T07:53:14.680Z,83.90
2022-10-17T07:58:43.528Z,83.90
2022-10-17T08:04:11.448Z,83.90
2022-10-17T08:09:39.210Z,83.80
2022-10-17T08:15:08.729Z,83.70
2022-10-17T08:20:37.364Z,83.60
2022-10-17T08:26:10.549Z,83.20
2022-10-17T08:31:38.438Z,82.70
2022-10-17T08:37:06.338Z,82.30
2022-10-17T08:43:16.012Z,82.10
2022-10-17T08:48:47.480Z,82.00
2022-10-17T08:54:46.829Z,81.90
2022-10-17T09:00:20.679Z,81.60
2022-10-17T09:06:01.594Z,81.20
2022-10-17T09:12:18.355Z,80.80
2022-10-17T09:18:10.061Z,80.60
2022-10-17T09:23:53.306Z,80.10
2022-10-17T09:29:34.705Z,79.30
2022-10-17T09:35:05.337Z,79.30
2022-10-17T09:40:35.415Z,79.10
2022-10-17T09:46:36.231Z,78.70
2022-10-17T09:52:11.727Z,78.50
2022-10-17T09:58:01.754Z,78.30
2022-10-17T10:03:30.207Z,78.00
2022-10-17T10:08:58.836Z,77.50
2022-10-17T10:14:35.937Z,77.10
2022-10-17T10:20:28.855Z,76.30
2022-10-17T10:26:04.444Z,76.00
2022-10-17T10:31:37.701Z,75.10
2022-10-17T10:37:34.265Z,74.40
2022-10-17T10:43:05.616Z,73.90
2022-10-17T10:48:37.673Z,73.80
2022-10-17T10:54:55.250Z,73.70
2022-10-17T11:00:26.826Z,73.40
2022-10-17T11:06:06.713Z,72.60
2022-10-17T11:11:42.619Z,72.40
2022-10-17T11:17:24.025Z,71.20
2022-10-17T11:23:05.007Z,71.00
2022-10-17T11:28:32.823Z,69.70
2022-10-17T11:34:09.867Z,69.40
2022-10-17T11:39:54.420Z,68.20
2022-10-17T11:45:27.119Z,68.30
2022-10-17T11:57:18.539Z,68.00
2022-10-17T12:03:12.593Z,67.20
2022-10-17T12:09:03.147Z,67.10
2022-10-17T12:14:33.942Z,66.60
2022-10-17T12:20:27.352Z,66.40
2022-10-17T12:26:05.930Z,65.30
2022-10-17T12:31:34.380Z,63.40
2022-10-17T12:37:02.277Z,62.80
2022-10-17T12:42:32.312Z,62.50
2022-10-17T12:48:00.200Z,62.30
2022-10-17T12:53:54.187Z,62.20
2022-10-17T12:59:28.773Z,61.90
2022-10-17T13:05:07.928Z,59.60
2022-10-17T13:10:41.784Z,58.50
2022-10-17T13:16:38.177Z,58.50
2022-10-17T13:22:27.149Z,58.40
2022-10-17T13:28:12.688Z,57.00
2022-10-17T13:33:42.367Z,55.20
2022-10-17T13:39:17.249Z,52.00
2022-10-17T13:44:47.908Z,50.30
2022-10-17T13:50:44.110Z,47.60
2022-10-17T13:56:29.176Z,45.20
2022-10-17T14:01:58.327Z,44.20
2022-10-17T14:07:58.103Z,42.80
2022-10-17T14:13:28.093Z,41.70
2022-10-17T14:18:56.262Z,41.50
2022-10-17T14:24:23.970Z,41.00
2022-10-17T14:29:54.852Z,40.90
2022-10-17T14:35:41.023Z,39.50
2022-10-17T14:41:42.826Z,39.20
2022-10-17T14:47:42.110Z,39.80
2022-10-17T14:53:13.031Z,40.10
2022-10-17T14:58:40.923Z,40.10
2022-10-17T15:04:10.865Z,40.50
2022-10-17T15:09:38.553Z,41.40
2022-10-17T15:15:07.154Z,42.50
2022-10-17T15:20:35.055Z,43.40
2022-10-17T15:26:02.924Z,44.00
2022-10-17T15:31:35.405Z,44.60
2022-10-17T15:37:05.607Z,45.00
2022-10-17T15:42:33.517Z,45.70
2022-10-17T15:48:29.130Z,46.40
2022-10-17T15:54:04.479Z,47.00
2022-10-17T15:59:34.761Z,47.70
2022-10-17T16:05:29.286Z,48.40
2022-10-17T16:10:57.231Z,49.00
2022-10-17T16:16:25.155Z,49.70
2022-10-17T16:21:53.726Z,50.30
2022-10-17T16:27:21.597Z,50.90
2022-10-17T16:32:49.912Z,51.40
2022-10-17T16:38:17.794Z,51.90
2022-10-17T16:43:46.168Z,52.30
2022-10-17T16:49:16.338Z,52.80
2022-10-17T16:54:44.353Z,53.30
2022-10-17T17:00:13.067Z,53.80
2022-10-17T17:05:40.957Z,54.30
2022-10-17T17:11:11.071Z,54.80
2022-10-17T17:16:39.331Z,55.20
2022-10-17T17:22:07.118Z,55.70
2022-10-17T17:27:34.924Z,56.10
2022-10-17T17:33:02.815Z,56.70
2022-10-17T17:38:33.533Z,57.10
2022-10-17T17:44:02.654Z,57.50
2022-10-17T17:49:30.459Z,57.90
2022-10-17T17:54:58.626Z,58.40
2022-10-17T18:00:26.934Z,58.70
2022-10-17T18:05:54.832Z,59.20
2022-10-17T18:11:23.035Z,59.60
2022-10-17T18:16:50.810Z,59.90
2022-10-17T18:22:18.712Z,60.40
2022-10-17T18:27:48.254Z,60.80
2022-10-17T18:33:17.388Z,61.30
2022-10-17T18:38:45.673Z,61.60
2022-10-17T18:44:42.053Z,61.90
2022-10-17T18:50:11.754Z,62.30
2022-10-17T19:01:23.553Z,63.20
2022-10-17T19:06:54.272Z,63.50
2022-10-17T19:12:22.139Z,63.90
2022-10-17T19:17:50.208Z,64.20
2022-10-17T19:23:18.145Z,64.50
2022-10-17T19:28:47.719Z,65.00
2022-10-17T19:34:17.652Z,66.20
2022-10-17T19:39:45.475Z,65.70
2022-10-17T19:45:24.590Z,66.00
2022-10-17T19:51:05.809Z,66.30
2022-10-17T19:56:40.541Z,66.60
2022-10-17T20:02:12.083Z,66.90
2022-10-17T20:07:40.225Z,67.20
2022-10-17T20:13:08.551Z,67.40
2022-10-17T20:18:36.475Z,67.70
2022-10-17T20:24:07.682Z,68.00
2022-10-17T20:29:35.491Z,68.20
2022-10-17T20:35:08.983Z,68.50
2022-10-17T20:40:36.909Z,68.90
2022-10-17T20:46:22.792Z,69.10
2022-10-17T20:51:51.242Z,69.20
2022-10-17T20:57:19.099Z,69.50
2022-10-17T21:02:47.359Z,69.80
2022-10-17T21:08:16.262Z,69.90
2022-10-17T21:13:44.956Z,70.70
2022-10-17T21:19:14.017Z,70.30
2022-10-17T21:24:42.029Z,70.40
2022-10-17T21:30:10.585Z,70.60
2022-10-17T21:35:38.285Z,70.80
2022-10-17T21:41:09.148Z,71.10
2022-10-17T21:46:37.998Z,71.10
2022-10-17T21:52:07.282Z,71.30
2022-10-17T21:57:35.211Z,71.40
2022-10-17T22:03:04.230Z,71.60
2022-10-17T22:08:33.545Z,71.80
2022-10-17T22:14:08.335Z,71.90
2022-10-17T22:19:36.169Z,72.10
2022-10-17T22:25:04.508Z,72.20
2022-10-17T22:30:32.324Z,72.30
2022-10-17T22:36:00.081Z,72.50
2022-10-17T22:41:27.932Z,73.30
2022-10-17T22:46:55.748Z,72.70
2022-10-17T22:52:23.724Z,72.90
2022-10-17T22:57:51.589Z,73.00
2022-10-17T23:03:20.945Z,73.20
2022-10-17T23:08:49.472Z,73.30
2022-10-17T23:14:17.407Z,73.50
2022-10-17T23:19:45.263Z,73.60
2022-10-17T23:25:13.048Z,73.70
2022-10-17T23:30:41.235Z,73.80
2022-10-17T23:36:11.306Z,74.00
2022-10-17T23:41:39.610Z,74.00
2022-10-17T23:47:07.418Z,74.30
2022-10-17T23:52:35.177Z,74.30
2022-10-17T23:58:02.894Z,74.40
